sensor_id;sensor_type;location;lat;lon;timestamp;temperature;humidity
63371;DHT22;49504;48.336;14.472;2022-09-19T00:02:29;25.90;51.30
63371;DHT22;49504;48.336;14.472;2022-09-19T00:07:30;25.90;51.20
63371;DHT22;49504;48.336;14.472;2022-09-19T00:20:43;25.80;50.60
63371;DHT22;49504;48.336;14.472;2022-09-19T00:26:55;25.80;50.70
63371;DHT22;49504;48.336;14.472;2022-09-19T00:31:56;25.90;51.60
63371;DHT22;49504;48.336;14.472;2022-09-19T00:36:57;25.90;51.50
63371;DHT22;49504;48.336;14.472;2022-09-19T00:41:59;25.80;51.40
63371;DHT22;49504;48.336;14.472;2022-09-19T00:47:03;25.90;51.60
63371;DHT22;49504;48.336;14.472;2022-09-19T00:52:12;25.80;51.70
63371;DHT22;49504;48.336;14.472;2022-09-19T00:57:16;25.90;51.60
63371;DHT22;49504;48.336;14.472;2022-09-19T01:03:53;25.80;51.00
63371;DHT22;49504;48.336;14.472;2022-09-19T01:18:00;25.80;50.90
63371;DHT22;49504;48.336;14.472;2022-09-19T01:23:35;25.70;51.50
63371;DHT22;49504;48.336;14.472;2022-09-19T01:28:49;25.80;51.70
63371;DHT22;49504;48.336;14.472;2022-09-19T01:33:57;25.80;51.70
63371;DHT22;49504;48.336;14.472;2022-09-19T01:39:03;25.80;51.90
63371;DHT22;49504;48.336;14.472;2022-09-19T01:44:16;25.80;51.90
63371;DHT22;49504;48.336;14.472;2022-09-19T01:49:28;25.80;51.80
63371;DHT22;49504;48.336;14.472;2022-09-19T01:54:41;25.80;52.00
63371;DHT22;49504;48.336;14.472;2022-09-19T01:59:59;25.80;52.00
63371;DHT22;49504;48.336;14.472;2022-09-19T02:05:09;25.80;51.90
63371;DHT22;49504;48.336;14.472;2022-09-19T02:10:19;25.80;51.90
63371;DHT22;49504;48.336;14.472;2022-09-19T02:16:04;25.80;51.40
63371;DHT22;49504;48.336;14.472;2022-09-19T02:21:10;25.80;52.20
63371;DHT22;49504;48.336;14.472;2022-09-19T02:26:14;25.80;52.20
63371;DHT22;49504;48.336;14.472;2022-09-19T02:31:18;25.80;52.10
63371;DHT22;49504;48.336;14.472;2022-09-19T02:36:24;25.70;52.10
63371;DHT22;49504;48.336;14.472;2022-09-19T02:43:01;25.80;51.50
63371;DHT22;49504;48.336;14.472;2022-09-19T02:51:53;25.70;51.40
63371;DHT22;49504;48.336;14.472;2022-09-19T03:03:32;25.70;51.60
63371;DHT22;49504;48.336;14.472;2022-09-19T03:09:05;25.70;51.70
63371;DHT22;49504;48.336;14.472;2022-09-19T03:14:07;25.70;52.50
63371;DHT22;49504;48.336;14.472;2022-09-19T03:23:43;25.70;51.70
63371;DHT22;49504;48.336;14.472;2022-09-19T03:28:46;25.70;52.40
63371;DHT22;49504;48.336;14.472;2022-09-19T03:39:39;25.60;51.20
63371;DHT22;49504;48.336;14.472;2022-09-19T03:44:40;25.70;52.20
63371;DHT22;49504;48.336;14.472;2022-09-19T03:55:13;25.70;51.70
63371;DHT22;49504;48.336;14.472;2022-09-19T04:00:14;25.70;52.00
63371;DHT22;49504;48.336;14.472;2022-09-19T04:05:15;25.70;51.70
63371;DHT22;49504;48.336;14.472;2022-09-19T04:10:18;25.70;51.50
63371;DHT22;49504;48.336;14.472;2022-09-19T04:15:19;25.70;51.00
63371;DHT22;49504;48.336;14.472;2022-09-19T04:20:20;25.60;51.20
63371;DHT22;49504;48.336;14.472;2022-09-19T04:25:22;25.70;51.30
63371;DHT22;49504;48.336;14.472;2022-09-19T04:30:23;25.70;52.00
63371;DHT22;49504;48.336;14.472;2022-09-19T04:35:24;25.70;52.90
63371;DHT22;49504;48.336;14.472;2022-09-19T04:40:26;25.70;52.40
63371;DHT22;49504;48.336;14.472;2022-09-19T04:45:27;25.70;53.20
63371;DHT22;49504;48.336;14.472;2022-09-19T04:50:28;25.70;53.10
63371;DHT22;49504;48.336;14.472;2022-09-19T04:55:31;25.70;53.40
63371;DHT22;49504;48.336;14.472;2022-09-19T05:00:32;25.80;53.30
63371;DHT22;49504;48.336;14.472;2022-09-19T05:05:33;25.80;53.10
63371;DHT22;49504;48.336;14.472;2022-09-19T05:10:36;25.80;53.10
63371;DHT22;49504;48.336;14.472;2022-09-19T05:15:37;25.80;52.40
63371;DHT22;49504;48.336;14.472;2022-09-19T05:20:39;25.80;51.90
63371;DHT22;49504;48.336;14.472;2022-09-19T05:25:41;25.90;51.50
63371;DHT22;49504;48.336;14.472;2022-09-19T05:30:47;25.80;51.00
63371;DHT22;49504;48.336;14.472;2022-09-19T05:37:58;25.80;50.70
63371;DHT22;49504;48.336;14.472;2022-09-19T05:42:59;25.80;50.80
63371;DHT22;49504;48.336;14.472;2022-09-19T05:48:01;25.80;50.70
63371;DHT22;49504;48.336;14.472;2022-09-19T06:04:27;25.70;50.20
63371;DHT22;49504;48.336;14.472;2022-09-19T06:09:28;25.80;50.50
63371;DHT22;49504;48.336;14.472;2022-09-19T06:14:29;25.70;50.50
63371;DHT22;49504;48.336;14.472;2022-09-19T06:19:31;25.70;51.00
63371;DHT22;49504;48.336;14.472;2022-09-19T06:24:32;25.70;51.20
63371;DHT22;49504;48.336;14.472;2022-09-19T06:31:34;25.70;50.70
63371;DHT22;49504;48.336;14.472;2022-09-19T06:36:35;25.70;51.30
63371;DHT22;49504;48.336;14.472;2022-09-19T06:41:36;25.70;51.60
63371;DHT22;49504;48.336;14.472;2022-09-19T06:46:39;25.70;52.10
63371;DHT22;49504;48.336;14.472;2022-09-19T06:51:40;25.70;51.60
63371;DHT22;49504;48.336;14.472;2022-09-19T06:56:41;25.70;51.10
63371;DHT22;49504;48.336;14.472;2022-09-19T07:05:16;25.60;50.70
63371;DHT22;49504;48.336;14.472;2022-09-19T07:10:18;25.70;51.00
63371;DHT22;49504;48.336;14.472;2022-09-19T07:15:46;25.60;50.50
63371;DHT22;49504;48.336;14.472;2022-09-19T07:20:47;25.70;51.00
63371;DHT22;49504;48.336;14.472;2022-09-19T07:25:48;25.60;50.90
63371;DHT22;49504;48.336;14.472;2022-09-19T07:30:50;25.60;51.00
63371;DHT22;49504;48.336;14.472;2022-09-19T07:35:53;25.60;50.80
63371;DHT22;49504;48.336;14.472;2022-09-19T07:40:55;25.60;50.80
63371;DHT22;49504;48.336;14.472;2022-09-19T07:49:44;25.60;50.20
63371;DHT22;49504;48.336;14.472;2022-09-19T07:56:55;25.60;50.50
63371;DHT22;49504;48.336;14.472;2022-09-19T08:01:56;25.60;50.50
63371;DHT22;49504;48.336;14.472;2022-09-19T08:06:56;25.60;50.70
63371;DHT22;49504;48.336;14.472;2022-09-19T08:12:02;25.60;50.80
63371;DHT22;49504;48.336;14.472;2022-09-19T08:17:55;25.50;50.20
63371;DHT22;49504;48.336;14.472;2022-09-19T08:22:59;25.60;50.40
63371;DHT22;49504;48.336;14.472;2022-09-19T08:28:10;25.60;49.60
63371;DHT22;49504;48.336;14.472;2022-09-19T08:33:11;25.60;50.50
63371;DHT22;49504;48.336;14.472;2022-09-19T08:38:13;25.50;49.60
63371;DHT22;49504;48.336;14.472;2022-09-19T08:43:18;25.50;49.50
63371;DHT22;49504;48.336;14.472;2022-09-19T08:48:27;25.50;49.40
63371;DHT22;49504;48.336;14.472;2022-09-19T08:53:41;25.50;49.00
63371;DHT22;49504;48.336;14.472;2022-09-19T08:58:49;25.60;50.00
63371;DHT22;49504;48.336;14.472;2022-09-19T09:04:00;25.50;49.50
63371;DHT22;49504;48.336;14.472;2022-09-19T09:09:12;25.50;49.40
63371;DHT22;49504;48.336;14.472;2022-09-19T09:14:24;25.60;49.50
63371;DHT22;49504;48.336;14.472;2022-09-19T09:19:47;25.50;49.60
63371;DHT22;49504;48.336;14.472;2022-09-19T09:25:10;25.60;49.90
63371;DHT22;49504;48.336;14.472;2022-09-19T09:31:46;25.50;49.10
63371;DHT22;49504;48.336;14.472;2022-09-19T09:38:44;25.50;49.10
63371;DHT22;49504;48.336;14.472;2022-09-19T09:45:24;25.50;49.10
63371;DHT22;49504;48.336;14.472;2022-09-19T09:56:06;25.50;49.60
63371;DHT22;49504;48.336;14.472;2022-09-19T10:01:24;25.50;49.80
63371;DHT22;49504;48.336;14.472;2022-09-19T10:06:34;25.50;50.40
63371;DHT22;49504;48.336;14.472;2022-09-19T10:11:39;25.60;50.90
63371;DHT22;49504;48.336;14.472;2022-09-19T10:16:46;25.50;50.30
63371;DHT22;49504;48.336;14.472;2022-09-19T10:25:07;25.50;49.40
63371;DHT22;49504;48.336;14.472;2022-09-19T10:30:13;25.50;49.60
63371;DHT22;49504;48.336;14.472;2022-09-19T10:35:22;25.50;49.60
63371;DHT22;49504;48.336;14.472;2022-09-19T10:45:29;25.50;49.40
63371;DHT22;49504;48.336;14.472;2022-09-19T10:50:31;25.50;49.70
63371;DHT22;49504;48.336;14.472;2022-09-19T10:55:35;25.50;49.80
63371;DHT22;49504;48.336;14.472;2022-09-19T11:00:49;25.50;49.80
63371;DHT22;49504;48.336;14.472;2022-09-19T11:06:56;25.50;49.40
63371;DHT22;49504;48.336;14.472;2022-09-19T11:12:03;25.50;49.80
63371;DHT22;49504;48.336;14.472;2022-09-19T11:27:25;25.50;49.30
63371;DHT22;49504;48.336;14.472;2022-09-19T11:32:44;25.50;50.20
63371;DHT22;49504;48.336;14.472;2022-09-19T11:42:01;25.60;49.70
63371;DHT22;49504;48.336;14.472;2022-09-19T11:51:55;25.90;49.70
63371;DHT22;49504;48.336;14.472;2022-09-19T11:57:08;26.10;49.70
63371;DHT22;49504;48.336;14.472;2022-09-19T12:02:29;26.30;49.40
63371;DHT22;49504;48.336;14.472;2022-09-19T12:07:43;26.60;49.10
63371;DHT22;49504;48.336;14.472;2022-09-19T12:17:53;27.10;48.10
63371;DHT22;49504;48.336;14.472;2022-09-19T12:27:46;27.40;47.60
63371;DHT22;49504;48.336;14.472;2022-09-19T12:33:57;27.60;47.20
63371;DHT22;49504;48.336;14.472;2022-09-19T12:39:06;27.80;46.90
63371;DHT22;49504;48.336;14.472;2022-09-19T12:44:49;27.80;46.70
63371;DHT22;49504;48.336;14.472;2022-09-19T12:49:57;27.80;46.70
63371;DHT22;49504;48.336;14.472;2022-09-19T12:55:12;27.80;46.60
63371;DHT22;49504;48.336;14.472;2022-09-19T13:00:19;27.80;46.70
63371;DHT22;49504;48.336;14.472;2022-09-19T13:09:24;27.70;46.70
63371;DHT22;49504;48.336;14.472;2022-09-19T13:14:38;27.70;46.80
63371;DHT22;49504;48.336;14.472;2022-09-19T13:19:42;27.60;46.90
63371;DHT22;49504;48.336;14.472;2022-09-19T13:24:55;27.50;46.90
63371;DHT22;49504;48.336;14.472;2022-09-19T13:29:56;27.40;47.20
63371;DHT22;49504;48.336;14.472;2022-09-19T13:35:13;27.40;47.20
63371;DHT22;49504;48.336;14.472;2022-09-19T13:45:48;27.20;47.60
63371;DHT22;49504;48.336;14.472;2022-09-19T13:50:55;27.10;47.50
63371;DHT22;49504;48.336;14.472;2022-09-19T13:56:00;27.10;47.70
63371;DHT22;49504;48.336;14.472;2022-09-19T14:01:14;27.00;47.80
63371;DHT22;49504;48.336;14.472;2022-09-19T14:08:29;26.90;47.60
63371;DHT22;49504;48.336;14.472;2022-09-19T14:13:34;26.80;48.10
63371;DHT22;49504;48.336;14.472;2022-09-19T14:18:46;26.80;48.30
63371;DHT22;49504;48.336;14.472;2022-09-19T14:23:57;26.70;48.30
63371;DHT22;49504;48.336;14.472;2022-09-19T14:29:12;26.60;48.20
63371;DHT22;49504;48.336;14.472;2022-09-19T14:40:33;26.50;48.30
63371;DHT22;49504;48.336;14.472;2022-09-19T14:51:26;26.40;48.10
63371;DHT22;49504;48.336;14.472;2022-09-19T14:58:29;26.30;47.70
63371;DHT22;49504;48.336;14.472;2022-09-19T15:03:43;26.40;48.50
63371;DHT22;49504;48.336;14.472;2022-09-19T15:08:49;26.30;48.80
63371;DHT22;49504;48.336;14.472;2022-09-19T15:13:53;26.30;49.00
63371;DHT22;49504;48.336;14.472;2022-09-19T15:22:51;26.20;48.40
63371;DHT22;49504;48.336;14.472;2022-09-19T15:27:56;26.20;49.20
63371;DHT22;49504;48.336;14.472;2022-09-19T15:33:00;26.20;49.30
63371;DHT22;49504;48.336;14.472;2022-09-19T15:38:06;26.20;49.30
63371;DHT22;49504;48.336;14.472;2022-09-19T15:43:10;26.20;49.30
63371;DHT22;49504;48.336;14.472;2022-09-19T15:48:16;26.10;49.30
63371;DHT22;49504;48.336;14.472;2022-09-19T15:53:27;26.10;49.30
63371;DHT22;49504;48.336;14.472;2022-09-19T16:02:04;26.10;48.80
63371;DHT22;49504;48.336;14.472;2022-09-19T16:07:10;26.10;49.50
63371;DHT22;49504;48.336;14.472;2022-09-19T16:12:39;26.10;49.60
63371;DHT22;49504;48.336;14.472;2022-09-19T16:18:13;26.10;49.50
63371;DHT22;49504;48.336;14.472;2022-09-19T16:32:19;26.00;49.00
63371;DHT22;49504;48.336;14.472;2022-09-19T16:37:28;26.00;49.90
63371;DHT22;49504;48.336;14.472;2022-09-19T16:42:35;26.00;51.10
63371;DHT22;49504;48.336;14.472;2022-09-19T16:47:37;26.10;51.40
63371;DHT22;49504;48.336;14.472;2022-09-19T16:52:38;26.20;51.30
63371;DHT22;49504;48.336;14.472;2022-09-19T16:57:40;26.40;51.40
63371;DHT22;49504;48.336;14.472;2022-09-19T17:02:42;26.50;51.40
63371;DHT22;49504;48.336;14.472;2022-09-19T17:11:38;26.80;49.70
63371;DHT22;49504;48.336;14.472;2022-09-19T17:16:39;26.90;49.70
63371;DHT22;49504;48.336;14.472;2022-09-19T17:21:40;27.00;49.90
63371;DHT22;49504;48.336;14.472;2022-09-19T17:26:42;27.10;49.30
63371;DHT22;49504;48.336;14.472;2022-09-19T17:31:43;27.10;49.50
63371;DHT22;49504;48.336;14.472;2022-09-19T17:36:45;27.10;49.50
63371;DHT22;49504;48.336;14.472;2022-09-19T17:41:48;27.00;49.50
63371;DHT22;49504;48.336;14.472;2022-09-19T17:46:49;27.00;49.70
63371;DHT22;49504;48.336;14.472;2022-09-19T17:51:50;27.00;49.20
63371;DHT22;49504;48.336;14.472;2022-09-19T17:56:52;27.00;49.30
63371;DHT22;49504;48.336;14.472;2022-09-19T18:01:53;26.90;49.40
63371;DHT22;49504;48.336;14.472;2022-09-19T18:06:54;26.90;49.60
63371;DHT22;49504;48.336;14.472;2022-09-19T18:11:57;26.80;49.60
63371;DHT22;49504;48.336;14.472;2022-09-19T18:16:57;26.80;50.00
63371;DHT22;49504;48.336;14.472;2022-09-19T18:21:58;26.70;49.70
63371;DHT22;49504;48.336;14.472;2022-09-19T18:27:01;26.70;49.80
63371;DHT22;49504;48.336;14.472;2022-09-19T18:32:02;26.70;49.80
63371;DHT22;49504;48.336;14.472;2022-09-19T18:37:03;26.60;49.90
63371;DHT22;49504;48.336;14.472;2022-09-19T18:42:05;26.60;49.90
63371;DHT22;49504;48.336;14.472;2022-09-19T18:49:20;26.50;49.40
63371;DHT22;49504;48.336;14.472;2022-09-19T18:54:21;26.50;50.20
63371;DHT22;49504;48.336;14.472;2022-09-19T18:59:22;26.50;50.20
63371;DHT22;49504;48.336;14.472;2022-09-19T19:04:25;26.50;50.10
63371;DHT22;49504;48.336;14.472;2022-09-19T19:09:26;26.50;50.00
63371;DHT22;49504;48.336;14.472;2022-09-19T19:14:34;26.40;49.20
63371;DHT22;49504;48.336;14.472;2022-09-19T19:19:35;26.40;50.50
63371;DHT22;49504;48.336;14.472;2022-09-19T19:24:36;26.40;49.80
63371;DHT22;49504;48.336;14.472;2022-09-19T19:33:05;26.30;49.20
63371;DHT22;49504;48.336;14.472;2022-09-19T19:41:04;26.30;49.30
63371;DHT22;49504;48.336;14.472;2022-09-19T19:46:07;26.30;50.00
63371;DHT22;49504;48.336;14.472;2022-09-19T19:51:11;26.30;50.10
63371;DHT22;49504;48.336;14.472;2022-09-19T19:56:17;26.30;50.20
63371;DHT22;49504;48.336;14.472;2022-09-19T20:01:20;26.30;50.20
63371;DHT22;49504;48.336;14.472;2022-09-19T20:10:57;26.20;49.50
63371;DHT22;49504;48.336;14.472;2022-09-19T20:16:00;26.20;50.50
63371;DHT22;49504;48.336;14.472;2022-09-19T20:21:03;26.20;49.90
63371;DHT22;49504;48.336;14.472;2022-09-19T20:26:09;26.20;50.00
63371;DHT22;49504;48.336;14.472;2022-09-19T20:31:11;26.20;49.90
63371;DHT22;49504;48.336;14.472;2022-09-19T20:36:12;26.20;49.70
63371;DHT22;49504;48.336;14.472;2022-09-19T20:41:15;26.20;49.70
63371;DHT22;49504;48.336;14.472;2022-09-19T20:46:16;26.20;49.70
63371;DHT22;49504;48.336;14.472;2022-09-19T20:51:48;26.10;49.10
63371;DHT22;49504;48.336;14.472;2022-09-19T20:57:41;26.10;49.20
63371;DHT22;49504;48.336;14.472;2022-09-19T21:02:42;26.10;49.70
63371;DHT22;49504;48.336;14.472;2022-09-19T21:10:21;26.00;49.10
63371;DHT22;49504;48.336;14.472;2022-09-19T21:15:22;26.00;49.60
63371;DHT22;49504;48.336;14.472;2022-09-19T21:24:08;26.00;49.10
63371;DHT22;49504;48.336;14.472;2022-09-19T21:32:07;26.00;49.10
63371;DHT22;49504;48.336;14.472;2022-09-19T21:37:08;26.00;49.70
63371;DHT22;49504;48.336;14.472;2022-09-19T21:42:09;26.00;49.60
63371;DHT22;49504;48.336;14.472;2022-09-19T21:51:30;26.00;49.20
63371;DHT22;49504;48.336;14.472;2022-09-19T21:56:32;26.00;49.60
63371;DHT22;49504;48.336;14.472;2022-09-19T22:01:35;26.00;49.70
63371;DHT22;49504;48.336;14.472;2022-09-19T22:06:39;25.90;49.60
63371;DHT22;49504;48.336;14.472;2022-09-19T22:11:40;26.00;49.70
63371;DHT22;49504;48.336;14.472;2022-09-19T22:16:41;26.00;49.60
63371;DHT22;49504;48.336;14.472;2022-09-19T22:21:44;26.00;49.60
63371;DHT22;49504;48.336;14.472;2022-09-19T22:26:44;26.00;49.60
63371;DHT22;49504;48.336;14.472;2022-09-19T22:31:45;26.00;49.50
63371;DHT22;49504;48.336;14.472;2022-09-19T22:36:48;25.90;49.50
63371;DHT22;49504;48.336;14.472;2022-09-19T22:41:48;25.90;49.50
63371;DHT22;49504;48.336;14.472;2022-09-19T22:48:18;25.90;49.00
63371;DHT22;49504;48.336;14.472;2022-09-19T22:53:41;25.90;49.00
63371;DHT22;49504;48.336;14.472;2022-09-19T22:58:43;25.90;49.50
63371;DHT22;49504;48.336;14.472;2022-09-19T23:05:59;25.80;49.00
63371;DHT22;49504;48.336;14.472;2022-09-19T23:11:03;25.90;49.60
63371;DHT22;49504;48.336;14.472;2022-09-19T23:21:56;25.90;49.10
63371;DHT22;49504;48.336;14.472;2022-09-19T23:26:58;25.90;49.50
63371;DHT22;49504;48.336;14.472;2022-09-19T23:36:04;25.80;49.00
63371;DHT22;49504;48.336;14.472;2022-09-19T23:41:07;25.80;49.40
63371;DHT22;49504;48.336;14.472;2022-09-19T23:46:09;25.90;50.20
63371;DHT22;49504;48.336;14.472;2022-09-19T23:51:13;25.80;49.60
